Time;durP1;ratioP1;P1;durP2;ratioP2;P2;SDS_P1;SDS_P2;PMS_P1;PMS_P2;Temp;Humidity;BMP_temperature;BMP_pressure;BME280_temperature;BME280_humidity;BME280_pressure;Samples;Min_cycle;Max_cycle;Signal;HPM_P1;HPM_P2
2021/04/27 00:05:06;;;;;;;22.70;11.10;;;;;;;0.68;90.93;100599.39;714895;1202;115091;-70
2021/04/27 00:20:27;;;;;;;24.10;11.60;;;;;;;0.66;92.71;100593.46;715014;1205;113932;-70
2021/04/27 00:35:47;;;;;;;32.77;14.30;;;;;;;0.70;92.75;100597.59;715167;1177;114187;-70
2021/04/27 00:51:08;;;;;;;22.35;10.23;;;;;;;0.74;92.95;100575.89;714738;1202;114937;-70
2021/04/27 01:06:29;;;;;;;26.55;12.10;;;;;;;0.87;92.62;100562.45;714954;1200;114906;-70
2021/04/27 01:21:49;;;;;;;36.40;13.23;;;;;;;0.83;93.00;100556.56;715190;1200;115049;-70
2021/04/27 01:37:11;;;;;;;35.27;13.17;;;;;;;0.37;93.02;100555.92;714795;1202;114212;-70
2021/04/27 01:52:32;;;;;;;343.83;73.53;;;;;;;0.70;95.20;100550.25;715183;1200;114006;-70
2021/04/27 02:07:52;;;;;;;50.15;22.08;;;;;;;0.75;95.29;100545.73;714832;1200;114233;-70
2021/04/27 02:23:16;;;;;;;31.20;14.08;;;;;;;0.73;95.82;100539.81;714904;1180;113916;-70
2021/04/27 02:38:36;;;;;;;37.50;18.35;;;;;;;0.57;96.66;100526.69;714658;1177;114605;-70
2021/04/27 02:53:57;;;;;;;31.47;14.53;;;;;;;0.46;96.73;100520.26;714831;1199;115271;-70
2021/04/27 03:09:17;;;;;;;105.08;28.38;;;;;;;0.43;96.18;100528.11;714954;1174;115070;-70
2021/04/27 03:24:38;;;;;;;28.00;14.43;;;;;;;0.20;97.69;100520.48;714388;1199;115883;-70
2021/04/27 03:39:58;;;;;;;30.30;11.93;;;;;;;0.21;96.60;100532.48;714569;1199;113896;-70
2021/04/27 03:55:19;;;;;;;29.20;13.27;;;;;;;0.29;96.24;100515.80;715022;1179;114765;-71
2021/04/27 04:10:39;;;;;;;33.50;14.03;;;;;;;0.47;97.41;100529.66;715471;1200;115135;-69
2021/04/27 04:26:00;;;;;;;31.33;15.75;;;;;;;0.75;98.24;100533.67;715568;1200;114283;-70
2021/04/27 04:41:20;;;;;;;64.60;28.73;;;;;;;1.02;97.64;100525.61;718144;1202;114483;-70
2021/04/27 04:56:40;;;;;;;137.33;59.95;;;;;;;1.40;98.55;100540.28;714884;1200;113387;-70
2021/04/27 05:12:01;;;;;;;51.40;22.95;;;;;;;1.66;97.66;100536.50;717459;1165;115256;-71
2021/04/27 05:27:23;;;;;;;28.55;15.55;;;;;;;2.28;97.07;100543.91;714313;1202;115164;-71
2021/04/27 05:42:44;;;;;;;23.70;12.90;;;;;;;2.68;95.07;100539.33;714059;1202;113536;-71
2021/04/27 05:58:05;;;;;;;31.85;16.85;;;;;;;3.23;94.82;100547.73;714274;1202;114485;-72
2021/04/27 06:13:25;;;;;;;33.05;15.70;;;;;;;4.02;94.37;100544.28;714226;1199;114540;-73
2021/04/27 06:28:46;;;;;;;37.45;16.48;;;;;;;4.66;91.39;100541.50;714315;1199;114160;-71
2021/04/27 06:44:06;;;;;;;59.00;22.40;;;;;;;5.33;87.58;100548.72;714654;1200;114483;-83
2021/04/27 06:59:31;;;;;;;26.85;13.50;;;;;;;6.01;82.55;100547.09;714855;1199;115271;-83
2021/04/27 07:14:51;;;;;;;12.37;6.23;;;;;;;6.83;78.30;100560.77;715119;1199;113473;-82
2021/04/27 07:30:13;;;;;;;7.37;5.13;;;;;;;7.35;68.68;100550.30;715435;1174;113651;-82
2021/04/27 07:45:34;;;;;;;20.70;12.33;;;;;;;8.05;62.93;100551.41;715104;1199;113434;-86
2021/04/27 08:00:55;;;;;;;7.93;3.90;;;;;;;9.18;60.74;100542.13;718232;1199;114687;-87
2021/04/27 08:16:16;;;;;;;9.25;4.63;;;;;;;9.28;57.61;100549.14;717622;1200;113475;-88
2021/04/27 08:31:36;;;;;;;7.10;3.27;;;;;;;9.46;56.68;100543.39;717605;1199;113451;-89
2021/04/27 08:46:58;;;;;;;19.45;7.85;;;;;;;9.72;53.90;100541.32;717628;1199;113226;-88
2021/04/27 09:02:29;;;;;;;9.30;5.50;;;;;;;9.94;55.25;100535.18;717918;1180;113459;-89
2021/04/27 09:17:50;;;;;;;9.83;4.55;;;;;;;10.00;54.03;100549.56;716231;1199;115161;-83
2021/04/27 09:33:11;;;;;;;6.05;3.53;;;;;;;10.32;53.38;100538.24;716348;1200;114439;-91
2021/04/27 09:48:38;;;;;;;8.63;4.88;;;;;;;10.08;53.08;100539.31;718217;1174;113821;-90
2021/04/27 10:04:19;;;;;;;8.40;3.58;;;;;;;11.14;54.19;100540.08;717817;1188;114099;-91
2021/04/27 10:19:40;;;;;;;6.10;3.00;;;;;;;10.98;53.84;100545.00;718344;1199;114475;-90
2021/04/27 10:35:00;;;;;;;5.28;2.70;;;;;;;10.52;53.57;100538.38;717834;1199;113889;-82
2021/04/27 10:50:32;;;;;;;10.95;6.05;;;;;;;10.89;52.94;100532.66;714847;1199;114536;-80
2021/04/27 11:06:07;;;;;;;24.45;9.48;;;;;;;10.17;52.93;100529.83;715129;1183;113837;-81
2021/04/27 11:21:32;;;;;;;12.37;6.27;;;;;;;10.25;53.71;100522.16;714926;1199;116521;-83
2021/04/27 11:36:54;;;;;;;30.05;11.23;;;;;;;12.21;51.94;100507.05;714372;1185;113978;-84
2021/04/27 11:52:35;;;;;;;8.48;3.73;;;;;;;12.91;50.82;100501.45;715712;1200;115596;-92
2021/04/27 12:07:55;;;;;;;41.80;24.10;;;;;;;11.89;51.01;100495.00;714985;1200;113789;-75
2021/04/27 12:23:22;;;;;;;6.65;4.13;;;;;;;11.63;50.48;100490.27;714694;1183;114385;-76
2021/04/27 12:38:42;;;;;;;10.88;5.25;;;;;;;11.51;51.36;100487.91;714353;1200;115080;-77
2021/04/27 12:54:03;;;;;;;24.55;12.40;;;;;;;12.30;51.20;100490.41;714665;1199;115320;-76
2021/04/27 13:09:28;;;;;;;5.05;3.30;;;;;;;12.13;50.92;100475.36;714663;1200;115333;-76
2021/04/27 13:24:53;;;;;;;13.20;7.00;;;;;;;12.52;50.91;100469.17;714839;1199;115830;-76
2021/04/27 13:40:14;;;;;;;29.93;12.78;;;;;;;13.30;50.54;100450.36;714706;1177;114325;-77
2021/04/27 13:55:36;;;;;;;6.70;3.40;;;;;;;13.75;49.27;100441.59;715912;1202;115056;-77
2021/04/27 14:10:58;;;;;;;23.88;11.55;;;;;;;13.48;48.58;100424.06;715163;1199;115431;-76
2021/04/27 14:26:19;;;;;;;5.50;3.68;;;;;;;14.02;49.38;100423.99;714759;1177;114079;-74
2021/04/27 14:41:40;;;;;;;32.65;16.18;;;;;;;12.81;49.69;100411.99;715421;1199;115535;-73
2021/04/27 14:57:00;;;;;;;10.73;7.70;;;;;;;12.49;50.66;100402.70;715187;1202;114928;-71
2021/04/27 15:12:21;;;;;;;12.08;6.50;;;;;;;12.73;51.66;100395.27;714931;1199;114223;-72
2021/04/27 15:27:42;;;;;;;50.15;15.58;;;;;;;12.38;52.13;100392.38;714741;1200;114436;-71
2021/04/27 15:43:05;;;;;;;17.77;9.70;;;;;;;12.74;52.46;100381.95;714233;1202;114500;-70
2021/04/27 15:58:25;;;;;;;21.20;9.80;;;;;;;12.93;52.10;100367.02;718269;1203;115301;-70
2021/04/27 16:13:47;;;;;;;35.18;14.18;;;;;;;12.44;52.25;100354.94;714643;1199;114303;-70
2021/04/27 16:29:08;;;;;;;33.15;18.20;;;;;;;11.42;53.05;100358.23;715246;1199;114389;-71
2021/04/27 16:44:28;;;;;;;37.08;21.43;;;;;;;10.97;54.11;100356.96;714789;1199;114194;-72
2021/04/27 16:59:48;;;;;;;90.58;33.60;;;;;;;10.45;55.90;100360.56;714388;1199;115479;-71
2021/04/27 17:15:09;;;;;;;87.85;39.75;;;;;;;10.25;56.83;100351.73;714256;1198;115628;-72
2021/04/27 17:30:30;;;;;;;46.55;20.25;;;;;;;9.91;57.62;100361.63;714436;1199;114724;-71
2021/04/27 17:45:51;;;;;;;42.50;21.90;;;;;;;9.40;60.05;100366.67;714416;1199;114995;-71
2021/04/27 18:01:11;;;;;;;81.23;31.07;;;;;;;8.75;60.41;100365.78;714570;1199;114336;-71
2021/04/27 18:16:32;;;;;;;135.23;54.60;;;;;;;8.24;62.50;100386.22;714898;1199;114261;-72
2021/04/27 18:31:54;;;;;;;106.55;47.00;;;;;;;7.86;63.24;100386.52;715114;1200;114392;-73
2021/04/27 18:47:16;;;;;;;238.35;99.35;;;;;;;7.40;63.96;100401.19;714331;1200;118016;-72
2021/04/27 19:02:39;;;;;;;193.33;85.97;;;;;;;7.04;65.48;100397.69;715622;1202;114709;-75
2021/04/27 19:18:01;;;;;;;159.15;58.68;;;;;;;6.59;66.61;100401.64;714371;1199;115069;-73
2021/04/27 19:33:22;;;;;;;320.38;120.43;;;;;;;6.06;68.62;100419.16;715433;1198;115232;-72
2021/04/27 19:48:42;;;;;;;74.90;37.00;;;;;;;5.72;69.25;100416.18;716382;1180;114834;-72
2021/04/27 20:04:03;;;;;;;260.63;87.57;;;;;;;5.40;70.53;100427.73;715619;1199;114321;-72
2021/04/27 20:19:24;;;;;;;187.25;71.20;;;;;;;5.12;71.83;100416.48;715194;1199;114996;-72
2021/04/27 20:34:46;;;;;;;188.30;62.70;;;;;;;4.80;73.01;100429.73;715603;1175;114097;-71
2021/04/27 20:50:09;;;;;;;434.88;143.85;;;;;;;4.50;74.22;100425.47;715816;1199;115493;-72
2021/04/27 21:05:29;;;;;;;294.88;110.68;;;;;;;4.28;76.00;100427.69;716182;1199;114126;-71
2021/04/27 21:20:51;;;;;;;231.53;83.70;;;;;;;4.11;75.41;100437.30;715803;1202;114643;-72
2021/04/27 21:36:11;;;;;;;312.55;110.48;;;;;;;3.78;76.27;100429.72;716488;1200;114555;-71
2021/04/27 21:51:31;;;;;;;195.58;66.70;;;;;;;3.46;76.68;100440.98;715735;1174;114469;-72
2021/04/27 22:06:52;;;;;;;149.43;53.28;;;;;;;3.23;77.09;100459.57;715433;1177;113950;-71
2021/04/27 22:22:13;;;;;;;40.23;18.70;;;;;;;3.10;78.97;100455.06;715418;1200;114338;-71
2021/04/27 22:37:34;;;;;;;52.30;22.00;;;;;;;2.85;79.07;100454.69;714596;1199;115101;-73
2021/04/27 22:52:55;;;;;;;114.78;42.45;;;;;;;2.69;79.87;100463.27;714711;1177;113795;-71
2021/04/27 23:08:15;;;;;;;148.97;53.90;;;;;;;2.40;81.41;100470.81;714073;1202;114777;-71
2021/04/27 23:23:36;;;;;;;176.35;60.10;;;;;;;2.34;81.53;100465.94;714337;1174;114636;-71
2021/04/27 23:38:57;;;;;;;88.60;33.15;;;;;;;2.24;81.55;100459.54;714062;1199;115141;-71
2021/04/27 23:54:17;;;;;;;106.70;38.43;;;;;;;2.07;81.98;100443.13;714311;1199;115081;-71
